createdAt,value
2019-04-11T00:00:46.004Z,36.22
2019-04-11T00:03:21.625Z,36.21
2019-04-11T00:05:56.197Z,36.64
2019-04-11T00:08:30.437Z,36.71
2019-04-11T00:11:05.845Z,37.03
2019-04-11T00:13:41.135Z,36.90
2019-04-11T00:16:15.288Z,37.08
2019-04-11T00:18:49.839Z,37.17
2019-04-11T00:21:25.687Z,37.22
2019-04-11T00:24:00.667Z,37.33
2019-04-11T00:26:36.088Z,37.36
2019-04-11T00:29:10.469Z,37.51
2019-04-11T00:31:45.181Z,37.52
2019-04-11T00:34:20.723Z,37.57
2019-04-11T00:36:55.068Z,37.69
2019-04-11T00:39:29.939Z,37.76
2019-04-11T00:42:04.083Z,37.81
2019-04-11T00:44:38.957Z,37.97
2019-04-11T00:47:13.357Z,38.07
2019-04-11T00:49:48.470Z,38.16
2019-04-11T00:52:23.384Z,38.09
2019-04-11T00:54:57.552Z,38.14
2019-04-11T00:57:32.750Z,38.10
2019-04-11T01:00:07.399Z,38.10
2019-04-11T01:02:43.266Z,38.21
2019-04-11T01:05:18.755Z,38.37
2019-04-11T01:07:53.400Z,38.36
2019-04-11T01:10:27.617Z,38.25
2019-04-11T01:13:01.782Z,38.31
2019-04-11T01:15:36.970Z,38.41
2019-04-11T01:18:12.246Z,38.74
2019-04-11T01:20:46.603Z,38.48
2019-04-11T01:23:20.863Z,38.50
2019-04-11T01:25:57.032Z,38.71
2019-04-11T01:28:31.369Z,39.35
2019-04-11T01:31:09.473Z,39.59
2019-04-11T01:33:44.289Z,39.77
2019-04-11T01:36:20.438Z,39.18
2019-04-11T01:38:57.236Z,39.31
2019-04-11T01:41:31.305Z,39.93
2019-04-11T01:44:07.103Z,39.82
2019-04-11T01:46:40.602Z,39.64
2019-04-11T01:49:18.412Z,39.77
2019-04-11T01:51:52.207Z,39.57
2019-04-11T01:54:26.465Z,39.45
2019-04-11T01:57:01.362Z,39.64
2019-04-11T01:59:35.665Z,39.54
2019-04-11T02:02:42.268Z,39.57
2019-04-11T02:05:25.262Z,39.62
2019-04-11T02:07:59.478Z,39.66
2019-04-11T02:10:35.034Z,39.42
2019-04-11T02:13:09.921Z,40.04
2019-04-11T02:15:44.233Z,39.62
2019-04-11T02:18:19.360Z,39.99
2019-04-11T02:20:54.346Z,40.05
2019-04-11T02:23:46.237Z,39.78
2019-04-11T02:26:25.231Z,40.11
2019-04-11T02:28:59.436Z,40.45
2019-04-11T02:31:34.946Z,40.09
2019-04-11T02:34:11.389Z,39.84
2019-04-11T02:36:46.585Z,39.76
2019-04-11T02:39:22.556Z,40.17
2019-04-11T02:41:57.028Z,40.20
2019-04-11T02:44:46.161Z,40.06
2019-04-11T02:47:13.653Z,40.30
2019-04-11T02:49:45.530Z,40.93
2019-04-11T02:52:20.344Z,42.07
2019-04-11T02:54:54.665Z,41.88
2019-04-11T02:57:29.919Z,41.47
2019-04-11T03:00:06.792Z,41.15
2019-04-11T03:02:42.517Z,39.67
2019-04-11T03:05:18.441Z,39.22
2019-04-11T03:07:54.094Z,39.07
2019-04-11T03:10:29.026Z,38.96
2019-04-11T03:13:04.585Z,38.98
2019-04-11T03:15:57.559Z,38.96
2019-04-11T03:18:35.716Z,38.93
2019-04-11T03:20:56.795Z,38.94
2019-04-11T03:23:28.563Z,39.05
2019-04-11T03:26:05.287Z,39.14
2019-04-11T03:28:42.535Z,39.17
2019-04-11T03:31:50.573Z,39.20
2019-04-11T03:39:28.135Z,39.58
2019-04-11T03:41:59.869Z,39.95
2019-04-11T03:44:25.402Z,40.11
2019-04-11T03:47:11.320Z,40.51
2019-04-11T03:49:43.373Z,41.19
2019-04-11T03:52:10.631Z,41.53
2019-04-11T03:54:47.385Z,41.47
2019-04-11T03:57:23.621Z,42.04
2019-04-11T03:59:58.851Z,42.19
2019-04-11T04:02:34.877Z,42.30
2019-04-11T04:05:10.646Z,42.17
2019-04-11T04:07:46.551Z,42.67
2019-04-11T04:10:23.618Z,42.72
2019-04-11T04:12:59.887Z,43.06
2019-04-11T04:16:08.194Z,42.98
2019-04-11T04:18:43.730Z,43.18
2019-04-11T04:21:33.238Z,43.43
2019-04-11T04:24:28.787Z,43.39
2019-04-11T04:27:04.513Z,43.42
2019-04-11T04:29:41.351Z,43.59
2019-04-11T04:32:16.450Z,43.73
2019-04-11T04:34:53.130Z,43.61
2019-04-11T04:37:27.412Z,43.65
2019-04-11T04:40:21.669Z,43.80
2019-04-11T04:42:46.072Z,43.98
2019-04-11T04:45:16.233Z,43.98
2019-04-11T04:47:57.035Z,43.69
2019-04-11T04:50:28.713Z,43.64
2019-04-11T04:53:05.135Z,43.67
2019-04-11T04:55:41.218Z,43.49
2019-04-11T04:58:17.831Z,43.45
2019-04-11T05:00:53.854Z,43.82
2019-04-11T05:03:27.547Z,45.07
2019-04-11T05:06:03.872Z,45.36
2019-04-11T05:08:39.051Z,45.47
2019-04-11T05:11:13.978Z,45.73
2019-04-11T05:13:51.164Z,46.21
2019-04-11T05:16:24.279Z,46.33
2019-04-11T05:18:59.452Z,46.29
2019-04-11T05:21:33.749Z,46.50
2019-04-11T05:24:07.784Z,46.52
2019-04-11T05:26:41.834Z,46.67
2019-04-11T05:29:17.439Z,46.66
2019-04-11T05:31:51.802Z,46.54
2019-04-11T05:34:25.930Z,46.52
2019-04-11T05:37:00.296Z,46.53
2019-04-11T05:39:34.431Z,46.39
2019-04-11T05:42:09.173Z,46.25
2019-04-11T05:44:43.354Z,46.09
2019-04-11T05:47:18.883Z,46.18
2019-04-11T05:50:09.235Z,46.15
2019-04-11T05:52:42.539Z,45.92
2019-04-11T05:55:17.667Z,45.70
2019-04-11T05:57:52.318Z,45.56
2019-04-11T06:00:48.906Z,45.43
2019-04-11T06:03:23.955Z,45.31
2019-04-11T06:06:36.946Z,45.26
2019-04-11T06:09:16.474Z,44.95
2019-04-11T06:12:09.418Z,44.90
2019-04-11T06:14:52.024Z,44.84
2019-04-11T06:17:26.570Z,44.71
2019-04-11T06:20:17.784Z,44.54
2019-04-11T06:23:05.039Z,44.47
2019-04-11T06:26:02.142Z,44.38
2019-04-11T06:28:36.742Z,44.22
2019-04-11T06:31:28.213Z,44.35
2019-04-11T06:34:05.510Z,44.57
2019-04-11T06:36:57.192Z,44.32
2019-04-11T06:39:46.056Z,44.50
2019-04-11T06:42:30.280Z,44.71
2019-04-11T06:45:21.713Z,44.91
2019-04-11T06:48:13.572Z,44.87
2019-04-11T06:51:11.583Z,45.28
2019-04-11T06:53:54.642Z,47.03
2019-04-11T06:56:50.881Z,46.96
2019-04-11T06:59:34.375Z,47.13
2019-04-11T07:02:17.983Z,47.06
2019-04-11T07:05:04.717Z,46.89
2019-04-11T07:07:39.255Z,46.88
2019-04-11T07:10:26.569Z,46.95
2019-04-11T07:13:08.333Z,46.72
2019-04-11T07:15:48.501Z,46.50
2019-04-11T07:18:40.200Z,46.43
2019-04-11T07:21:14.996Z,46.30
2019-04-11T07:24:07.492Z,46.16
2019-04-11T07:26:45.864Z,46.02
2019-04-11T07:29:44.836Z,45.87
2019-04-11T07:32:20.292Z,45.80
2019-04-11T07:35:12.868Z,45.69
2019-04-11T07:37:49.349Z,45.44
2019-04-11T07:40:51.916Z,45.31
2019-04-11T07:43:33.413Z,44.94
2019-04-11T07:46:27.448Z,45.18
2019-04-11T07:49:08.148Z,45.03
2019-04-11T07:51:56.642Z,45.18
2019-04-11T07:54:30.794Z,45.02
2019-04-11T07:57:17.796Z,45.15
2019-04-11T08:00:09.733Z,45.26
2019-04-11T08:03:09.964Z,44.90
2019-04-11T08:06:22.282Z,44.97
2019-04-11T08:09:15.293Z,45.00
2019-04-11T08:11:56.944Z,45.05
2019-04-11T08:14:48.866Z,45.36
2019-04-11T08:17:36.860Z,46.22
2019-04-11T08:20:23.431Z,46.53
2019-04-11T08:23:00.739Z,46.01
2019-04-11T08:25:53.755Z,45.77
2019-04-11T08:28:28.961Z,45.74
2019-04-11T08:31:15.145Z,45.42
2019-04-11T08:33:50.963Z,45.38
2019-04-11T08:37:02.970Z,45.26
2019-04-11T08:39:45.087Z,45.18
2019-04-11T08:42:37.817Z,45.27
2019-04-11T08:45:14.640Z,45.20
2019-04-11T08:47:54.604Z,45.21
2019-04-11T08:50:31.728Z,45.00
2019-04-11T08:53:30.918Z,44.92
2019-04-11T08:56:05.641Z,44.84
2019-04-11T08:58:57.414Z,44.55
2019-04-11T09:01:32.018Z,44.70
2019-04-11T09:04:23.971Z,44.64
2019-04-11T09:06:58.602Z,44.72
2019-04-11T09:10:11.523Z,44.56
2019-04-11T09:12:55.055Z,44.53
2019-04-11T09:15:46.888Z,44.65
2019-04-11T09:18:21.834Z,44.65
2019-04-11T09:21:13.610Z,44.10
2019-04-11T09:23:48.339Z,44.08
2019-04-11T09:26:41.089Z,43.99
2019-04-11T09:29:15.948Z,44.00
2019-04-11T09:32:18.202Z,44.01
2019-04-11T09:34:59.805Z,43.97
2019-04-11T09:37:37.807Z,43.86
2019-04-11T09:40:31.966Z,43.73
2019-04-11T09:43:18.006Z,43.50
2019-04-11T09:46:10.265Z,43.50
2019-04-11T09:49:12.366Z,43.47
2019-04-11T09:52:17.799Z,43.46
2019-04-11T09:54:59.002Z,43.54
2019-04-11T09:57:36.708Z,43.39
2019-04-11T10:00:22.740Z,44.68
2019-04-11T10:03:00.743Z,44.66
2019-04-11T10:05:46.952Z,43.37
2019-04-11T10:08:43.700Z,41.93
2019-04-11T10:11:55.202Z,40.67
2019-04-11T10:14:31.598Z,39.67
2019-04-11T10:17:43.364Z,38.91
2019-04-11T10:20:18.876Z,37.71
2019-04-11T10:23:12.438Z,37.12
2019-04-11T10:26:05.450Z,36.63
2019-04-11T10:28:58.060Z,36.18
2019-04-11T10:31:34.715Z,35.89
2019-04-11T10:34:24.371Z,35.46
2019-04-11T10:37:09.589Z,35.28
2019-04-11T10:40:02.036Z,35.25
2019-04-11T10:42:36.837Z,34.95
2019-04-11T10:45:20.603Z,34.48
2019-04-11T10:48:01.230Z,34.11
2019-04-11T10:50:53.153Z,34.03
2019-04-11T10:53:28.173Z,33.53
2019-04-11T10:56:22.163Z,33.67
2019-04-11T10:58:59.443Z,33.51
2019-04-11T11:02:04.796Z,32.85
2019-04-11T11:04:48.838Z,32.68
2019-04-11T11:07:28.697Z,33.14
2019-04-11T11:10:09.234Z,32.40
2019-04-11T11:13:14.252Z,32.26
2019-04-11T11:15:52.868Z,32.80
2019-04-11T11:19:15.337Z,32.23
2019-04-11T11:21:29.744Z,32.66
2019-04-11T11:24:20.058Z,32.64
2019-04-11T11:26:57.925Z,32.42
2019-04-11T11:29:47.718Z,32.61
2019-04-11T11:32:31.585Z,32.54
2019-04-11T11:35:28.302Z,32.48
2019-04-11T11:38:07.851Z,32.62
2019-04-11T11:41:03.822Z,32.05
2019-04-11T11:43:39.091Z,32.23
2019-04-11T11:46:40.426Z,32.14
2019-04-11T11:49:36.267Z,31.97
2019-04-11T11:52:13.691Z,31.74
2019-04-11T11:54:53.651Z,32.11
2019-04-11T11:57:59.201Z,31.91
2019-04-11T12:00:34.746Z,32.14
2019-04-11T12:03:26.433Z,31.77
2019-04-11T12:06:05.378Z,31.62
2019-04-11T12:08:58.226Z,31.79
2019-04-11T12:11:30.949Z,31.62
2019-04-11T12:14:27.479Z,31.75
2019-04-11T12:17:11.866Z,31.31
2019-04-11T12:20:16.394Z,31.65
2019-04-11T12:22:52.103Z,31.47
2019-04-11T12:25:33.495Z,31.48
2019-04-11T12:28:25.726Z,31.53
2019-04-11T12:31:07.146Z,31.50
2019-04-11T12:34:08.541Z,31.67
2019-04-11T12:36:50.137Z,31.80
2019-04-11T12:39:42.054Z,31.32
2019-04-11T12:42:22.264Z,31.28
2019-04-11T12:45:33.791Z,30.99
2019-04-11T12:48:11.918Z,31.78
2019-04-11T12:51:02.964Z,31.08
2019-04-11T12:53:36.937Z,31.14
2019-04-11T12:56:30.797Z,31.01
2019-04-11T12:59:17.363Z,30.78
2019-04-11T13:02:08.144Z,31.17
2019-04-11T13:04:46.725Z,31.15
2019-04-11T13:07:45.397Z,30.89
2019-04-11T13:10:24.207Z,29.56
2019-04-11T13:13:20.102Z,29.42
2019-04-11T13:16:22.838Z,29.70
2019-04-11T13:19:04.596Z,30.17
2019-04-11T13:21:46.136Z,31.39
2019-04-11T13:24:39.492Z,31.83
2019-04-11T13:27:32.546Z,32.13
2019-04-11T13:30:24.930Z,32.20
2019-04-11T13:33:01.012Z,32.38
2019-04-11T13:35:53.844Z,32.48
2019-04-11T13:38:37.516Z,32.71
2019-04-11T13:41:29.554Z,32.89
2019-04-11T13:44:21.960Z,33.06
2019-04-11T13:47:20.549Z,33.22
2019-04-11T13:50:00.664Z,33.51
2019-04-11T13:52:49.366Z,33.58
2019-04-11T13:55:28.344Z,33.70
2019-04-11T13:58:19.632Z,33.83
2019-04-11T14:01:01.742Z,34.07
2019-04-11T14:04:01.254Z,34.20
2019-04-11T14:06:37.128Z,34.60
2019-04-11T14:09:34.384Z,34.61
2019-04-11T14:12:12.710Z,34.65
2019-04-11T14:15:06.359Z,35.47
2019-04-11T14:17:51.417Z,35.69
2019-04-11T14:20:41.787Z,35.85
2019-04-11T14:23:34.141Z,36.05
2019-04-11T14:26:29.854Z,36.23
2019-04-11T14:29:32.279Z,36.39
2019-04-11T14:32:25.012Z,36.53
2019-04-11T14:35:16.142Z,36.66
2019-04-11T14:38:09.195Z,36.79
2019-04-11T14:41:01.827Z,36.89
2019-04-11T14:43:45.894Z,37.01
2019-04-11T14:46:38.080Z,37.11
2019-04-11T14:49:16.723Z,37.25
2019-04-11T14:52:08.639Z,37.26
2019-04-11T14:54:49.276Z,37.34
2019-04-11T14:57:31.572Z,37.44
2019-04-11T15:00:17.516Z,37.51
2019-04-11T15:03:04.164Z,37.61
2019-04-11T15:05:46.457Z,37.68
2019-04-11T15:08:38.766Z,37.79
2019-04-11T15:11:27.664Z,37.91
2019-04-11T15:14:12.675Z,37.97
2019-04-11T15:17:04.601Z,38.06
2019-04-11T15:19:38.728Z,38.12
2019-04-11T15:22:25.211Z,38.21
2019-04-11T15:25:07.811Z,38.27
2019-04-11T15:28:12.360Z,38.31
2019-04-11T15:30:48.222Z,38.41
2019-04-11T15:33:47.865Z,38.46
2019-04-11T15:36:22.501Z,38.53
2019-04-11T15:39:18.338Z,38.59
2019-04-11T15:42:01.445Z,38.69
2019-04-11T15:44:48.920Z,38.13
2019-04-11T15:47:23.208Z,38.35
2019-04-11T15:50:16.182Z,38.46
2019-04-11T15:52:55.239Z,38.64
2019-04-11T15:55:58.298Z,38.63
2019-04-11T15:58:42.442Z,38.66
2019-04-11T16:01:35.067Z,38.86
2019-04-11T16:04:22.802Z,39.30
2019-04-11T16:07:22.365Z,41.63
2019-04-11T16:09:56.953Z,40.42
2019-04-11T16:12:39.640Z,40.65
2019-04-11T16:15:16.120Z,38.99
2019-04-11T16:18:15.824Z,39.11
2019-04-11T16:20:51.820Z,37.66
2019-04-11T16:23:43.542Z,36.69
2019-04-11T16:26:22.195Z,35.79
2019-04-11T16:29:16.097Z,34.97
2019-04-11T16:31:50.387Z,34.40
2019-04-11T16:34:48.551Z,33.84
2019-04-11T16:37:19.329Z,33.91
2019-04-11T16:40:14.879Z,33.47
2019-04-11T16:42:53.879Z,33.79
2019-04-11T16:45:45.633Z,33.40
2019-04-11T16:48:19.547Z,33.18
2019-04-11T16:50:53.763Z,32.93
2019-04-11T16:53:27.994Z,32.68
2019-04-11T16:56:02.374Z,32.70
2019-04-11T16:58:36.384Z,32.65
2019-04-11T17:01:10.638Z,31.74
2019-04-11T17:03:44.845Z,31.94
2019-04-11T17:06:40.360Z,31.92
2019-04-11T17:09:26.621Z,31.86
2019-04-11T17:11:59.504Z,31.72
2019-04-11T17:14:33.810Z,31.82
2019-04-11T17:17:14.940Z,31.47
2019-04-11T17:19:44.028Z,31.24
2019-04-11T17:22:18.913Z,31.51
2019-04-11T17:24:53.588Z,31.43
2019-04-11T17:27:27.630Z,31.35
2019-04-11T17:30:01.890Z,31.47
2019-04-11T17:32:36.065Z,31.53
2019-04-11T17:35:10.287Z,31.43
2019-04-11T17:37:44.583Z,31.58
2019-04-11T17:40:18.683Z,31.16
2019-04-11T17:42:52.892Z,31.02
2019-04-11T17:45:27.173Z,31.15
2019-04-11T17:48:01.483Z,31.10
2019-04-11T17:50:35.845Z,31.35
2019-04-11T17:53:09.936Z,31.35
2019-04-11T17:55:44.051Z,31.09
2019-04-11T17:58:18.460Z,30.98
2019-04-11T18:01:00.510Z,31.11
2019-04-11T18:03:35.533Z,31.44
2019-04-11T18:06:10.624Z,31.70
2019-04-11T18:08:46.618Z,31.54
2019-04-11T18:11:20.785Z,31.47
2019-04-11T18:13:55.191Z,31.25
2019-04-11T18:16:31.680Z,31.41
2019-04-11T18:19:06.055Z,31.19
2019-04-11T18:21:40.872Z,31.40
2019-04-11T18:24:15.147Z,32.38
2019-04-11T18:26:51.761Z,33.16
2019-04-11T18:29:25.728Z,33.04
2019-04-11T18:32:00.071Z,32.84
2019-04-11T18:34:34.457Z,32.55
2019-04-11T18:37:09.004Z,32.18
2019-04-11T18:39:43.416Z,32.48
2019-04-11T18:42:17.732Z,32.10
2019-04-11T18:44:51.924Z,32.03
2019-04-11T18:47:27.205Z,31.68
2019-04-11T18:50:01.379Z,32.04
2019-04-11T18:52:36.804Z,32.16
2019-04-11T18:55:11.304Z,32.10
2019-04-11T18:57:45.688Z,32.17
2019-04-11T19:00:21.845Z,31.91
2019-04-11T19:02:56.314Z,31.91
2019-04-11T19:05:30.646Z,32.03
2019-04-11T19:08:04.939Z,31.04
2019-04-11T19:10:39.357Z,31.89
2019-04-11T19:13:16.696Z,31.48
2019-04-11T19:15:49.436Z,31.71
2019-04-11T19:18:23.883Z,31.28
2019-04-11T19:20:58.084Z,31.64
2019-04-11T19:23:32.296Z,31.37
2019-04-11T19:26:06.472Z,31.28
2019-04-11T19:28:40.736Z,30.95
2019-04-11T19:31:15.049Z,31.19
2019-04-11T19:33:48.910Z,31.32
2019-04-11T19:36:23.161Z,31.12
2019-04-11T19:38:57.153Z,31.04
2019-04-11T19:41:31.505Z,31.02
2019-04-11T19:44:06.021Z,30.68
2019-04-11T19:46:40.994Z,31.10
2019-04-11T19:49:15.098Z,31.32
2019-04-11T19:51:50.871Z,31.02
2019-04-11T19:54:26.068Z,31.21
2019-04-11T19:57:09.618Z,31.67
2019-04-11T19:59:43.785Z,31.30
2019-04-11T20:02:17.791Z,30.56
2019-04-11T20:04:51.797Z,31.55
2019-04-11T20:07:26.018Z,31.93
2019-04-11T20:10:00.899Z,31.93
2019-04-11T20:12:36.550Z,30.15
2019-04-11T20:15:10.651Z,31.33
2019-04-11T20:17:45.103Z,31.43
2019-04-11T20:20:19.379Z,31.63
2019-04-11T20:22:59.148Z,32.18
2019-04-11T20:25:29.463Z,32.11
2019-04-11T20:28:03.686Z,32.04
2019-04-11T20:30:37.876Z,31.71
2019-04-11T20:33:11.868Z,31.91
2019-04-11T20:35:46.206Z,32.01
2019-04-11T20:38:20.357Z,31.95
2019-04-11T20:40:54.309Z,31.23
2019-04-11T20:43:29.551Z,31.47
2019-04-11T20:46:05.233Z,30.96
2019-04-11T20:48:40.004Z,30.96
2019-04-11T20:51:14.442Z,30.96
2019-04-11T20:53:48.766Z,31.56
2019-04-11T20:56:24.487Z,30.76
2019-04-11T20:58:59.331Z,30.94
2019-04-11T21:01:33.467Z,30.80
2019-04-11T21:04:07.723Z,32.26
2019-04-11T21:06:42.012Z,31.12
2019-04-11T21:09:16.409Z,31.49
2019-04-11T21:11:50.712Z,31.96
2019-04-11T21:14:24.675Z,31.53
2019-04-11T21:16:58.885Z,31.79
2019-04-11T21:19:32.889Z,31.32
2019-04-11T21:22:07.190Z,31.31
2019-04-11T21:24:41.640Z,31.42
2019-04-11T21:27:15.592Z,31.32
2019-04-11T21:29:49.800Z,32.03
2019-04-11T21:32:23.854Z,31.89
2019-04-11T21:35:01.741Z,32.09
2019-04-11T21:37:36.639Z,31.43
2019-04-11T21:40:10.519Z,32.01
2019-04-11T21:42:44.805Z,31.92
2019-04-11T21:45:18.985Z,31.79
2019-04-11T21:47:59.470Z,31.79
2019-04-11T21:50:33.927Z,31.56
2019-04-11T21:53:08.247Z,32.01
2019-04-11T21:55:47.438Z,31.84
2019-04-11T21:58:20.111Z,31.78
2019-04-11T22:01:01.268Z,31.85
2019-04-11T22:03:36.920Z,32.06
2019-04-11T22:06:11.083Z,32.49
2019-04-11T22:08:45.547Z,32.46
2019-04-11T22:11:19.920Z,32.62
2019-04-11T22:13:54.154Z,32.27
2019-04-11T22:16:28.538Z,32.02
2019-04-11T22:19:03.122Z,31.83
2019-04-11T22:21:37.284Z,32.07
2019-04-11T22:24:11.628Z,31.65
2019-04-11T22:26:50.189Z,31.36
2019-04-11T22:29:24.847Z,31.79
2019-04-11T22:31:58.188Z,31.83
2019-04-11T22:34:44.092Z,32.01
2019-04-11T22:37:18.282Z,32.65
2019-04-11T22:39:52.445Z,32.20
2019-04-11T22:42:26.914Z,32.20
2019-04-11T22:45:01.101Z,32.19
2019-04-11T22:47:35.972Z,32.33
2019-04-11T22:50:11.413Z,32.24
2019-04-11T22:52:45.951Z,32.60
2019-04-11T22:55:20.336Z,32.56
2019-04-11T22:57:54.729Z,32.56
2019-04-11T23:00:28.825Z,32.27
2019-04-11T23:03:21.673Z,34.05
2019-04-11T23:05:54.308Z,32.42
2019-04-11T23:08:28.490Z,32.96
2019-04-11T23:11:02.764Z,32.97
2019-04-11T23:13:37.095Z,33.25
2019-04-11T23:16:12.027Z,33.88
2019-04-11T23:18:47.076Z,34.11
2019-04-11T23:21:20.996Z,33.66
2019-04-11T23:23:55.125Z,34.04
2019-04-11T23:26:29.277Z,33.93
2019-04-11T23:29:03.213Z,33.86
2019-04-11T23:31:37.397Z,34.44
2019-04-11T23:34:11.922Z,33.96
2019-04-11T23:36:45.760Z,34.09
2019-04-11T23:39:22.668Z,34.51
2019-04-11T23:41:56.149Z,34.17
2019-04-11T23:44:30.499Z,34.53
2019-04-11T23:47:04.733Z,34.66
2019-04-11T23:49:39.031Z,34.32
2019-04-11T23:52:13.339Z,34.06
2019-04-11T23:54:47.721Z,34.03
2019-04-11T23:57:21.901Z,33.86
2019-04-11T23:59:56.217Z,34.28
